Time;durP1;ratioP1;P1;durP2;ratioP2;P2;SDS_P1;SDS_P2;PMS_P1;PMS_P2;Temp;Humidity;BMP_temperature;BMP_pressure;BME280_temperature;BME280_humidity;BME280_pressure;Samples;Min_cycle;Max_cycle;Signal;HPM_P1;HPM_P2
2022/11/25 00:00:00;;;;;;;;;;;;;;;;;;7371334;19;816;-67
2022/11/25 00:02:28;;;;;;;;;;;;;;;;;;7371406;19;787;-67
2022/11/25 00:04:56;;;;;;;;;;;;;;;;;;7368862;19;1862;-65
2022/11/25 00:07:24;;;;;;;;;;;;;;;;;;7374482;19;1830;-67
2022/11/25 00:09:53;;;;;;;;;;;;;;;;;;7370090;19;835;-70
2022/11/25 00:12:21;;;;;;;;;;;;;;;;;;7372629;19;1728;-69
2022/11/25 00:14:49;;;;;;;;;;;;;;;;;;7368592;19;1353;-70
2022/11/25 00:17:17;;;;;;;;;;;;;;;;;;7370735;19;886;-66
2022/11/25 00:19:47;;;;;;;;;;;;;;;;;;7369635;19;850;-64
2022/11/25 00:22:15;;;;;;;;;;;;;;;;;;7370893;19;901;-67
2022/11/25 00:24:44;;;;;;;;;;;;;;;;;;7366688;19;1842;-66
2022/11/25 00:27:12;;;;;;;;;;;;;;;;;;7370787;19;802;-72
2022/11/25 00:29:40;;;;;;;;;;;;;;;;;;7369118;19;918;-66
2022/11/25 00:32:08;;;;;;;;;;;;;;;;;;7370198;19;866;-67
2022/11/25 00:34:36;;;;;;;;;;;;;;;;;;7366538;19;1320;-65
2022/11/25 00:37:04;;;;;;;;;;;;;;;;;;7372584;19;1880;-66
2022/11/25 00:39:32;;;;;;;;;;;;;;;;;;7368499;19;864;-65
2022/11/25 00:44:41;;;;;;;;;;;;;;;;;;7366072;19;1846;-65
2022/11/25 00:47:10;;;;;;;;;;;;;;;;;;7370047;19;843;-69
2022/11/25 00:49:38;;;;;;;;;;;;;;;;;;7369920;19;1845;-68
2022/11/25 00:52:07;;;;;;;;;;;;;;;;;;7369053;19;838;-67
2022/11/25 00:54:35;;;;;;;;;;;;;;;;;;7366710;19;1294;-64
2022/11/25 00:57:03;;;;;;;;;;;;;;;;;;7367808;19;984;-65
2022/11/25 00:59:31;;;;;;;;;;;;;;;;;;7367651;19;834;-65
2022/11/25 01:02:00;;;;;;;;;;;;;;;;;;7371664;19;1741;-67
2022/11/25 01:04:28;;;;;;;;;;;;;;;;;;7368535;19;1861;-65
2022/11/25 01:06:58;;;;;;;;;;;;;;;;;;7369358;19;879;-67
2022/11/25 01:09:26;;;;;;;;;;;;;;;;;;7367853;19;935;-66
2022/11/25 01:11:55;;;;;;;;;;;;;;;;;;7367830;19;847;-66
2022/11/25 01:14:23;;;;;;;;;;;;;;;;;;7367579;19;1349;-69
2022/11/25 01:16:52;;;;;;;;;;;;;;;;;;7367695;19;1052;-69
2022/11/25 01:19:20;;;;;;;;;;;;;;;;;;7368476;19;1861;-69
2022/11/25 01:21:48;;;;;;;;;;;;;;;;;;7367754;19;813;-69
2022/11/25 01:24:16;;;;;;;;;;;;;;;;;;7366241;19;1834;-69
2022/11/25 01:26:44;;;;;;;;;;;;;;;;;;7367079;19;760;-65
2022/11/25 01:29:12;;;;;;;;;;;;;;;;;;7366644;19;837;-69
2022/11/25 01:31:41;;;;;;;;;;;;;;;;;;7367929;19;1985;-68
2022/11/25 01:34:09;;;;;;;;;;;;;;;;;;7366102;19;1330;-68
2022/11/25 01:36:37;;;;;;;;;;;;;;;;;;7367928;19;815;-69
2022/11/25 01:39:05;;;;;;;;;;;;;;;;;;7367964;19;1896;-69
2022/11/25 01:41:33;;;;;;;;;;;;;;;;;;7369605;19;781;-69
2022/11/25 01:44:01;;;;;;;;;;;;;;;;;;7367882;19;1401;-68
2022/11/25 01:46:29;;;;;;;;;;;;;;;;;;7371642;19;1892;-67
2022/11/25 01:48:58;;;;;;;;;;;;;;;;;;7366913;19;961;-66
2022/11/25 01:51:26;;;;;;;;;;;;;;;;;;7368377;19;822;-66
2022/11/25 01:53:54;;;;;;;;;;;;;;;;;;7364828;19;1358;-68
2022/11/25 01:56:22;;;;;;;;;;;;;;;;;;7367233;19;807;-69
2022/11/25 01:58:50;;;;;;;;;;;;;;;;;;7367301;19;1854;-68
2022/11/25 02:01:20;;;;;;;;;;;;;;;;;;7368166;19;793;-68
2022/11/25 02:03:48;;;;;;;;;;;;;;;;;;7371253;19;1971;-67
2022/11/25 02:06:18;;;;;;;;;;;;;;;;;;7364554;19;1850;-68
2022/11/25 02:08:46;;;;;;;;;;;;;;;;;;7365531;19;861;-67
2022/11/25 02:11:14;;;;;;;;;;;;;;;;;;7367449;19;856;-68
2022/11/25 02:13:42;;;;;;;;;;;;;;;;;;7364608;19;1358;-67
2022/11/25 02:16:10;;;;;;;;;;;;;;;;;;7366186;19;772;-64
2022/11/25 02:18:38;;;;;;;;;;;;;;;;;;7368560;19;1873;-66
2022/11/25 02:21:07;;;;;;;;;;;;;;;;;;7366202;19;800;-68
2022/11/25 02:23:35;;;;;;;;;;;;;;;;;;7364588;19;1279;-66
2022/11/25 02:26:03;;;;;;;;;;;;;;;;;;7363605;19;1858;-69
2022/11/25 02:28:32;;;;;;;;;;;;;;;;;;7365242;19;878;-68
2022/11/25 02:31:00;;;;;;;;;;;;;;;;;;7365939;19;823;-67
2022/11/25 02:33:28;;;;;;;;;;;;;;;;;;7367834;19;1862;-65
2022/11/25 02:35:57;;;;;;;;;;;;;;;;;;7366142;19;852;-64
2022/11/25 02:38:26;;;;;;;;;;;;;;;;;;7365382;19;806;-69
2022/11/25 02:40:54;;;;;;;;;;;;;;;;;;7370378;19;1866;-68
2022/11/25 02:43:22;;;;;;;;;;;;;;;;;;7365360;19;1271;-66
2022/11/25 02:45:50;;;;;;;;;;;;;;;;;;7365821;19;2141;-68
2022/11/25 02:48:20;;;;;;;;;;;;;;;;;;7365091;19;779;-66
2022/11/25 02:50:48;;;;;;;;;;;;;;;;;;7365301;19;811;-66
2022/11/25 02:53:17;;;;;;;;;;;;;;;;;;7365886;19;1353;-67
2022/11/25 02:55:45;;;;;;;;;;;;;;;;;;7365615;19;814;-69
2022/11/25 02:58:13;;;;;;;;;;;;;;;;;;7364457;19;787;-71
2022/11/25 03:00:41;;;;;;;;;;;;;;;;;;7365540;19;950;-71
2022/11/25 03:03:10;;;;;;;;;;;;;;;;;;7363937;19;1346;-71
2022/11/25 03:05:38;;;;;;;;;;;;;;;;;;7362849;19;1838;-66
2022/11/25 03:08:06;;;;;;;;;;;;;;;;;;7364575;19;900;-66
2022/11/25 03:10:37;;;;;;;;;;;;;;;;;;7366050;19;839;-68
2022/11/25 03:13:06;;;;;;;;;;;;;;;;;;7365569;19;1192;-67
2022/11/25 03:15:34;;;;;;;;;;;;;;;;;;7366079;19;1910;-68
2022/11/25 03:18:02;;;;;;;;;;;;;;;;;;7365242;19;812;-69
2022/11/25 03:20:30;;;;;;;;;;;;;;;;;;7364447;19;779;-69
2022/11/25 03:22:58;;;;;;;;;;;;;;;;;;7366948;19;1918;-68
2022/11/25 03:25:29;;;;;;;;;;;;;;;;;;7361409;19;1820;-72
2022/11/25 03:27:57;;;;;;;;;;;;;;;;;;7366396;19;867;-72
2022/11/25 03:30:26;;;;;;;;;;;;;;;;;;7367993;19;1626;-69
2022/11/25 03:32:58;;;;;;;;;;;;;;;;;;7364147;19;1321;-71
2022/11/25 03:35:27;;;;;;;;;;;;;;;;;;7366215;19;791;-71
2022/11/25 03:37:55;;;;;;;;;;;;;;;;;;7366967;19;834;-71
2022/11/25 03:40:23;;;;;;;;;;;;;;;;;;7364789;19;800;-70
2022/11/25 03:42:51;;;;;;;;;;;;;;;;;;7362975;19;1248;-69
2022/11/25 03:45:20;;;;;;;;;;;;;;;;;;7362932;19;1850;-69
2022/11/25 03:47:48;;;;;;;;;;;;;;;;;;7363907;19;925;-67
2022/11/25 03:50:17;;;;;;;;;;;;;;;;;;7363085;19;803;-68
2022/11/25 03:52:47;;;;;;;;;;;;;;;;;;7364024;19;1293;-71
2022/11/25 03:55:15;;;;;;;;;;;;;;;;;;7363098;19;829;-69
2022/11/25 03:57:46;;;;;;;;;;;;;;;;;;7362849;19;768;-68
2022/11/25 04:00:14;;;;;;;;;;;;;;;;;;7364670;19;1859;-69
2022/11/25 04:02:56;;;;;;;;;;;;;;;;;;7362770;19;1310;-69
2022/11/25 04:05:24;;;;;;;;;;;;;;;;;;7361650;19;1841;-68
2022/11/25 04:07:53;;;;;;;;;;;;;;;;;;7362620;19;866;-68
2022/11/25 04:10:22;;;;;;;;;;;;;;;;;;7362438;19;866;-68
2022/11/25 04:12:47;;;;;;;;;;;;;;;;;;7362635;19;1268;-69
2022/11/25 04:15:19;;;;;;;;;;;;;;;;;;7362649;19;747;-69
2022/11/25 04:17:52;;;;;;;;;;;;;;;;;;7372514;19;1374;-71
2022/11/25 04:20:20;;;;;;;;;;;;;;;;;;7370941;19;812;-72
2022/11/25 04:22:55;;;;;;;;;;;;;;;;;;7370824;19;1476;-73
2022/11/25 04:25:23;;;;;;;;;;;;;;;;;;7378540;19;1841;-72
2022/11/25 04:27:52;;;;;;;;;;;;;;;;;;7374025;19;969;-72
2022/11/25 04:30:26;;;;;;;;;;;;;;;;;;7377574;19;614;-72
2022/11/25 04:32:55;;;;;;;;;;;;;;;;;;7384494;19;1295;-72
2022/11/25 04:35:23;;;;;;;;;;;;;;;;;;7383260;19;866;-72
2022/11/25 04:37:55;;;;;;;;;;;;;;;;;;7380694;19;731;-72
2022/11/25 04:40:24;;;;;;;;;;;;;;;;;;7379732;19;870;-72
2022/11/25 04:43:01;;;;;;;;;;;;;;;;;;7375334;19;1398;-72
2022/11/25 04:45:29;;;;;;;;;;;;;;;;;;7372049;19;1853;-72
2022/11/25 04:47:58;;;;;;;;;;;;;;;;;;7369911;19;807;-72
2022/11/25 04:50:26;;;;;;;;;;;;;;;;;;7370054;19;824;-71
2022/11/25 04:53:06;;;;;;;;;;;;;;;;;;7369741;19;1310;-72
2022/11/25 04:55:34;;;;;;;;;;;;;;;;;;7370267;19;827;-72
2022/11/25 04:58:06;;;;;;;;;;;;;;;;;;7368995;19;702;-72
2022/11/25 05:00:33;;;;;;;;;;;;;;;;;;7370216;19;906;-72
2022/11/25 05:03:02;;;;;;;;;;;;;;;;;;7370391;19;1581;-72
2022/11/25 05:05:32;;;;;;;;;;;;;;;;;;7369229;19;1845;-71
2022/11/25 05:08:00;;;;;;;;;;;;;;;;;;7369697;19;863;-71
2022/11/25 05:10:29;;;;;;;;;;;;;;;;;;7368160;19;804;-72
2022/11/25 05:12:58;;;;;;;;;;;;;;;;;;7368917;19;1283;-71
2022/11/25 05:15:26;;;;;;;;;;;;;;;;;;7368819;19;811;-71
2022/11/25 05:17:55;;;;;;;;;;;;;;;;;;7367739;19;838;-69
2022/11/25 05:20:37;;;;;;;;;;;;;;;;;;7368469;19;747;-68
2022/11/25 05:23:05;;;;;;;;;;;;;;;;;;7367481;19;1298;-68
2022/11/25 05:25:33;;;;;;;;;;;;;;;;;;7371001;19;1864;-69
2022/11/25 05:28:25;;;;;;;;;;;;;;;;;;7365378;19;838;-69
2022/11/25 05:30:54;;;;;;;;;;;;;;;;;;7368451;19;779;-69
2022/11/25 05:33:22;;;;;;;;;;;;;;;;;;7368802;19;2190;-69
2022/11/25 05:35:50;;;;;;;;;;;;;;;;;;7367360;19;866;-69
2022/11/25 05:38:19;;;;;;;;;;;;;;;;;;7366796;19;735;-71
2022/11/25 05:40:47;;;;;;;;;;;;;;;;;;7368296;19;797;-70
2022/11/25 05:43:16;;;;;;;;;;;;;;;;;;7366690;19;1358;-69
2022/11/25 05:45:44;;;;;;;;;;;;;;;;;;7366888;19;1841;-69
2022/11/25 05:48:14;;;;;;;;;;;;;;;;;;7368025;19;831;-70
2022/11/25 05:50:43;;;;;;;;;;;;;;;;;;7371509;19;1915;-70
2022/11/25 05:53:17;;;;;;;;;;;;;;;;;;7366149;19;1398;-70
2022/11/25 05:55:46;;;;;;;;;;;;;;;;;;7366720;19;879;-70
2022/11/25 05:58:25;;;;;;;;;;;;;;;;;;7366248;19;757;-71
2022/11/25 06:00:57;;;;;;;;;;;;;;;;;;7367049;19;846;-70
2022/11/25 06:03:25;;;;;;;;;;;;;;;;;;7366936;19;1373;-70
2022/11/25 06:05:53;;;;;;;;;;;;;;;;;;7365974;19;1842;-70
2022/11/25 06:08:21;;;;;;;;;;;;;;;;;;7366569;19;832;-70
2022/11/25 06:10:49;;;;;;;;;;;;;;;;;;7365651;19;853;-70
2022/11/25 06:13:17;;;;;;;;;;;;;;;;;;7366542;19;1287;-71
2022/11/25 06:15:46;;;;;;;;;;;;;;;;;;7367663;19;1894;-71
2022/11/25 06:18:17;;;;;;;;;;;;;;;;;;7367205;19;753;-71
2022/11/25 06:20:45;;;;;;;;;;;;;;;;;;7370421;19;2059;-70
2022/11/25 06:23:13;;;;;;;;;;;;;;;;;;7366703;19;1290;-71
2022/11/25 06:25:41;;;;;;;;;;;;;;;;;;7366483;19;1854;-71
2022/11/25 06:28:09;;;;;;;;;;;;;;;;;;7365980;19;861;-71
2022/11/25 06:30:38;;;;;;;;;;;;;;;;;;7366949;19;837;-71
2022/11/25 06:33:21;;;;;;;;;;;;;;;;;;7371050;19;1806;-69
2022/11/25 06:35:50;;;;;;;;;;;;;;;;;;7367975;19;1721;-72
2022/11/25 06:38:18;;;;;;;;;;;;;;;;;;7365682;19;838;-72
2022/11/25 06:40:46;;;;;;;;;;;;;;;;;;7368125;19;811;-72
2022/11/25 06:43:15;;;;;;;;;;;;;;;;;;7366727;19;1240;-71
2022/11/25 06:45:43;;;;;;;;;;;;;;;;;;7367091;19;1854;-72
2022/11/25 06:48:11;;;;;;;;;;;;;;;;;;7367280;19;905;-72
2022/11/25 06:50:39;;;;;;;;;;;;;;;;;;7367468;19;807;-72
2022/11/25 06:53:07;;;;;;;;;;;;;;;;;;7369277;19;1858;-73
2022/11/25 06:55:36;;;;;;;;;;;;;;;;;;7368405;19;828;-72
2022/11/25 06:58:04;;;;;;;;;;;;;;;;;;7367308;19;826;-72
2022/11/25 07:00:32;;;;;;;;;;;;;;;;;;7368019;19;710;-73
2022/11/25 07:03:00;;;;;;;;;;;;;;;;;;7368091;19;1267;-72
2022/11/25 07:05:28;;;;;;;;;;;;;;;;;;7370044;19;1555;-73
2022/11/25 07:07:56;;;;;;;;;;;;;;;;;;7364627;19;1812;-72
2022/11/25 07:10:24;;;;;;;;;;;;;;;;;;7368684;19;795;-73
2022/11/25 07:12:53;;;;;;;;;;;;;;;;;;7366933;19;1299;-72
2022/11/25 07:15:21;;;;;;;;;;;;;;;;;;7368180;19;858;-73
2022/11/25 07:17:49;;;;;;;;;;;;;;;;;;7367821;19;779;-73
2022/11/25 07:20:17;;;;;;;;;;;;;;;;;;7368838;19;807;-72
2022/11/25 07:22:46;;;;;;;;;;;;;;;;;;7368692;19;1282;-73
2022/11/25 07:25:14;;;;;;;;;;;;;;;;;;7368278;19;808;-73
2022/11/25 07:27:42;;;;;;;;;;;;;;;;;;7364523;19;1834;-74
2022/11/25 07:30:10;;;;;;;;;;;;;;;;;;7367704;19;846;-74
2022/11/25 07:32:38;;;;;;;;;;;;;;;;;;7368882;19;842;-75
2022/11/25 07:35:07;;;;;;;;;;;;;;;;;;7368187;19;882;-74
2022/11/25 07:37:35;;;;;;;;;;;;;;;;;;7369081;19;845;-74
2022/11/25 07:40:03;;;;;;;;;;;;;;;;;;7367785;19;712;-75
2022/11/25 07:42:32;;;;;;;;;;;;;;;;;;7368898;19;767;-74
2022/11/25 07:45:00;;;;;;;;;;;;;;;;;;7364834;19;1291;-75
2022/11/25 07:47:42;;;;;;;;;;;;;;;;;;7364380;19;1875;-75
2022/11/25 07:50:10;;;;;;;;;;;;;;;;;;7366161;19;807;-73
2022/11/25 07:52:38;;;;;;;;;;;;;;;;;;7370791;19;1201;-72
2022/11/25 07:55:06;;;;;;;;;;;;;;;;;;7374120;19;792;-73
2022/11/25 07:57:35;;;;;;;;;;;;;;;;;;7373733;19;763;-74
2022/11/25 08:00:03;;;;;;;;;;;;;;;;;;7374957;19;1538;-75
2022/11/25 08:02:39;;;;;;;;;;;;;;;;;;7373599;19;1377;-75
2022/11/25 08:05:08;;;;;;;;;;;;;;;;;;7373567;19;898;-74
2022/11/25 08:07:36;;;;;;;;;;;;;;;;;;7370878;19;1842;-74
2022/11/25 08:10:04;;;;;;;;;;;;;;;;;;7372566;19;890;-74
2022/11/25 08:12:33;;;;;;;;;;;;;;;;;;7372839;19;803;-73
2022/11/25 08:15:01;;;;;;;;;;;;;;;;;;7370871;19;1280;-73
2022/11/25 08:17:29;;;;;;;;;;;;;;;;;;7372486;19;819;-78
2022/11/25 08:19:58;;;;;;;;;;;;;;;;;;7372441;19;825;-73
2022/11/25 08:22:26;;;;;;;;;;;;;;;;;;7372725;19;855;-73
2022/11/25 08:24:54;;;;;;;;;;;;;;;;;;7370832;19;1687;-73
2022/11/25 08:27:22;;;;;;;;;;;;;;;;;;7369531;19;1858;-73
2022/11/25 08:29:50;;;;;;;;;;;;;;;;;;7372362;19;825;-73
2022/11/25 08:32:18;;;;;;;;;;;;;;;;;;7371793;19;771;-73
2022/11/25 08:34:46;;;;;;;;;;;;;;;;;;7369446;19;1289;-72
2022/11/25 08:37:15;;;;;;;;;;;;;;;;;;7370801;19;1538;-72
2022/11/25 08:39:43;;;;;;;;;;;;;;;;;;7371972;19;798;-72
2022/11/25 08:42:11;;;;;;;;;;;;;;;;;;7372562;19;811;-72
2022/11/25 08:44:39;;;;;;;;;;;;;;;;;;7370255;19;1531;-72
2022/11/25 08:47:08;;;;;;;;;;;;;;;;;;7370811;19;1826;-71
2022/11/25 08:49:37;;;;;;;;;;;;;;;;;;7369141;19;910;-72
2022/11/25 08:52:05;;;;;;;;;;;;;;;;;;7372033;19;1640;-73
2022/11/25 08:54:33;;;;;;;;;;;;;;;;;;7369378;19;1345;-72
2022/11/25 08:57:02;;;;;;;;;;;;;;;;;;7371286;19;720;-72
2022/11/25 08:59:30;;;;;;;;;;;;;;;;;;7370515;19;758;-72
2022/11/25 09:01:58;;;;;;;;;;;;;;;;;;7370584;19;791;-72
2022/11/25 09:04:26;;;;;;;;;;;;;;;;;;7365627;19;1287;-73
2022/11/25 09:06:54;;;;;;;;;;;;;;;;;;7369925;19;1834;-72
2022/11/25 09:09:22;;;;;;;;;;;;;;;;;;7369767;19;819;-72
2022/11/25 09:11:50;;;;;;;;;;;;;;;;;;7370747;19;811;-71
2022/11/25 09:14:19;;;;;;;;;;;;;;;;;;7368227;19;1846;-68
2022/11/25 09:16:47;;;;;;;;;;;;;;;;;;7372857;19;1828;-66
2022/11/25 09:19:15;;;;;;;;;;;;;;;;;;7369266;19;831;-67
2022/11/25 09:21:43;;;;;;;;;;;;;;;;;;7368794;19;865;-70
2022/11/25 09:24:11;;;;;;;;;;;;;;;;;;7367989;19;1360;-71
2022/11/25 09:26:41;;;;;;;;;;;;;;;;;;7371669;19;1841;-71
2022/11/25 09:29:09;;;;;;;;;;;;;;;;;;7369141;19;919;-71
2022/11/25 09:31:37;;;;;;;;;;;;;;;;;;7369586;19;757;-70
2022/11/25 09:34:06;;;;;;;;;;;;;;;;;;7365593;19;1327;-68
2022/11/25 09:36:35;;;;;;;;;;;;;;;;;;7369146;19;870;-67
2022/11/25 09:39:03;;;;;;;;;;;;;;;;;;7368429;19;847;-68
2022/11/25 09:46:52;;;;;;;;;;;;;;;;;;7368871;19;1898;-67
2022/11/25 09:49:20;;;;;;;;;;;;;;;;;;7367019;19;914;-66
2022/11/25 09:51:49;;;;;;;;;;;;;;;;;;7368962;19;774;-67
2022/11/25 09:54:17;;;;;;;;;;;;;;;;;;7366133;19;1303;-68
2022/11/25 09:56:45;;;;;;;;;;;;;;;;;;7368301;19;814;-68
2022/11/25 09:59:13;;;;;;;;;;;;;;;;;;7367849;19;792;-65
2022/11/25 10:01:41;;;;;;;;;;;;;;;;;;7368175;19;817;-67
2022/11/25 10:04:09;;;;;;;;;;;;;;;;;;7368800;19;2108;-67
2022/11/25 10:06:37;;;;;;;;;;;;;;;;;;7369204;19;1829;-66
2022/11/25 10:09:06;;;;;;;;;;;;;;;;;;7367452;19;797;-67
2022/11/25 10:11:34;;;;;;;;;;;;;;;;;;7368848;19;865;-67
2022/11/25 10:14:02;;;;;;;;;;;;;;;;;;7368429;19;1863;-67
2022/11/25 10:16:30;;;;;;;;;;;;;;;;;;7368806;19;902;-67
2022/11/25 10:18:58;;;;;;;;;;;;;;;;;;7365553;19;796;-66
2022/11/25 10:21:26;;;;;;;;;;;;;;;;;;7367794;19;807;-66
2022/11/25 10:23:54;;;;;;;;;;;;;;;;;;7365539;19;1255;-65
2022/11/25 10:26:23;;;;;;;;;;;;;;;;;;7367547;19;831;-66
2022/11/25 10:28:51;;;;;;;;;;;;;;;;;;7367793;19;2140;-69
2022/11/25 10:31:19;;;;;;;;;;;;;;;;;;7367978;19;816;-67
2022/11/25 10:33:48;;;;;;;;;;;;;;;;;;7367909;19;1864;-68
2022/11/25 10:36:16;;;;;;;;;;;;;;;;;;7367838;19;858;-65
2022/11/25 10:38:44;;;;;;;;;;;;;;;;;;7366964;19;850;-66
2022/11/25 10:41:12;;;;;;;;;;;;;;;;;;7367630;19;775;-68
2022/11/25 10:43:40;;;;;;;;;;;;;;;;;;7366618;19;1318;-67
2022/11/25 10:46:08;;;;;;;;;;;;;;;;;;7367055;19;846;-64
2022/11/25 10:48:37;;;;;;;;;;;;;;;;;;7363586;19;1857;-67
2022/11/25 10:51:05;;;;;;;;;;;;;;;;;;7369264;19;1782;-64
2022/11/25 10:53:33;;;;;;;;;;;;;;;;;;7364197;19;1346;-65
2022/11/25 10:56:02;;;;;;;;;;;;;;;;;;7365930;19;858;-67
2022/11/25 10:58:30;;;;;;;;;;;;;;;;;;7366221;19;793;-64
2022/11/25 11:00:58;;;;;;;;;;;;;;;;;;7366876;19;853;-66
2022/11/25 11:03:26;;;;;;;;;;;;;;;;;;7365015;19;1267;-66
2022/11/25 11:05:54;;;;;;;;;;;;;;;;;;7366721;19;760;-67
2022/11/25 11:08:23;;;;;;;;;;;;;;;;;;7363667;19;1828;-65
2022/11/25 11:10:51;;;;;;;;;;;;;;;;;;7366895;19;792;-65
2022/11/25 11:13:19;;;;;;;;;;;;;;;;;;7365409;19;1334;-64
2022/11/25 11:15:47;;;;;;;;;;;;;;;;;;7366439;19;816;-66
2022/11/25 11:18:15;;;;;;;;;;;;;;;;;;7364185;19;811;-66
2022/11/25 11:20:43;;;;;;;;;;;;;;;;;;7371071;19;1796;-66
2022/11/25 11:23:12;;;;;;;;;;;;;;;;;;7368600;19;1326;-66
2022/11/25 11:25:40;;;;;;;;;;;;;;;;;;7369630;19;828;-64
2022/11/25 11:28:09;;;;;;;;;;;;;;;;;;7366294;19;1818;-64
2022/11/25 11:30:37;;;;;;;;;;;;;;;;;;7370581;19;1730;-69
2022/11/25 11:33:05;;;;;;;;;;;;;;;;;;7367675;19;1305;-66
2022/11/25 11:35:33;;;;;;;;;;;;;;;;;;7367743;19;1818;-68
2022/11/25 11:38:01;;;;;;;;;;;;;;;;;;7365303;19;800;-67
2022/11/25 11:40:29;;;;;;;;;;;;;;;;;;7365094;19;847;-67
2022/11/25 11:42:58;;;;;;;;;;;;;;;;;;7365466;19;1342;-67
2022/11/25 11:45:26;;;;;;;;;;;;;;;;;;7364742;19;804;-67
2022/11/25 11:47:54;;;;;;;;;;;;;;;;;;7363298;19;1838;-68
2022/11/25 11:50:22;;;;;;;;;;;;;;;;;;7364864;19;841;-67
2022/11/25 11:52:50;;;;;;;;;;;;;;;;;;7364799;19;1283;-68
2022/11/25 11:55:19;;;;;;;;;;;;;;;;;;7364772;19;851;-66
2022/11/25 11:57:47;;;;;;;;;;;;;;;;;;7363673;19;800;-68
2022/11/25 12:00:15;;;;;;;;;;;;;;;;;;7365688;19;824;-66
2022/11/25 12:02:43;;;;;;;;;;;;;;;;;;7364679;19;1311;-68
2022/11/25 12:05:11;;;;;;;;;;;;;;;;;;7365219;19;815;-68
2022/11/25 12:07:39;;;;;;;;;;;;;;;;;;7363116;19;1835;-67
2022/11/25 12:10:08;;;;;;;;;;;;;;;;;;7364430;19;851;-66
2022/11/25 12:12:36;;;;;;;;;;;;;;;;;;7363288;19;784;-66
2022/11/25 12:15:04;;;;;;;;;;;;;;;;;;7361530;19;1217;-66
2022/11/25 12:17:32;;;;;;;;;;;;;;;;;;7364505;19;867;-68
2022/11/25 12:20:00;;;;;;;;;;;;;;;;;;7364029;19;911;-66
2022/11/25 12:22:28;;;;;;;;;;;;;;;;;;7363769;19;839;-67
2022/11/25 12:24:56;;;;;;;;;;;;;;;;;;7360951;19;1279;-66
2022/11/25 12:27:25;;;;;;;;;;;;;;;;;;7363968;19;1841;-66
2022/11/25 12:29:53;;;;;;;;;;;;;;;;;;7362974;19;804;-66
2022/11/25 12:32:21;;;;;;;;;;;;;;;;;;7363606;19;835;-67
2022/11/25 12:34:49;;;;;;;;;;;;;;;;;;7361364;19;1332;-67
2022/11/25 12:37:17;;;;;;;;;;;;;;;;;;7362511;19;806;-66
2022/11/25 12:39:45;;;;;;;;;;;;;;;;;;7369755;19;817;-66
2022/11/25 12:42:13;;;;;;;;;;;;;;;;;;7369403;19;879;-67
2022/11/25 12:44:42;;;;;;;;;;;;;;;;;;7368647;19;1267;-68
2022/11/25 12:47:10;;;;;;;;;;;;;;;;;;7370386;19;850;-67
2022/11/25 12:49:38;;;;;;;;;;;;;;;;;;7367143;19;1849;-67
2022/11/25 12:52:06;;;;;;;;;;;;;;;;;;7369799;19;942;-66
2022/11/25 12:54:34;;;;;;;;;;;;;;;;;;7368422;19;1275;-67
2022/11/25 12:57:03;;;;;;;;;;;;;;;;;;7370007;19;808;-67
2022/11/25 12:59:31;;;;;;;;;;;;;;;;;;7369883;19;807;-66
2022/11/25 13:01:59;;;;;;;;;;;;;;;;;;7370353;19;825;-66
2022/11/25 13:04:27;;;;;;;;;;;;;;;;;;7368278;19;1330;-66
2022/11/25 13:06:55;;;;;;;;;;;;;;;;;;7370169;19;803;-65
2022/11/25 13:09:23;;;;;;;;;;;;;;;;;;7367045;19;1842;-67
2022/11/25 13:11:51;;;;;;;;;;;;;;;;;;7370261;19;863;-66
2022/11/25 13:14:20;;;;;;;;;;;;;;;;;;7368122;19;1255;-66
2022/11/25 13:16:48;;;;;;;;;;;;;;;;;;7370238;19;890;-66
2022/11/25 13:19:16;;;;;;;;;;;;;;;;;;7369140;19;799;-65
2022/11/25 13:21:44;;;;;;;;;;;;;;;;;;7369682;19;756;-66
2022/11/25 13:24:12;;;;;;;;;;;;;;;;;;7365522;19;1331;-66
2022/11/25 13:26:40;;;;;;;;;;;;;;;;;;7369646;19;918;-67
2022/11/25 13:29:09;;;;;;;;;;;;;;;;;;7367207;19;1845;-68
2022/11/25 13:31:37;;;;;;;;;;;;;;;;;;7367897;19;804;-65
2022/11/25 13:34:05;;;;;;;;;;;;;;;;;;7368165;19;1715;-66
2022/11/25 13:36:33;;;;;;;;;;;;;;;;;;7369582;19;840;-65
2022/11/25 13:39:01;;;;;;;;;;;;;;;;;;7368045;19;804;-65
2022/11/25 13:41:30;;;;;;;;;;;;;;;;;;7367613;19;771;-67
2022/11/25 13:43:58;;;;;;;;;;;;;;;;;;7367204;19;1338;-65
2022/11/25 13:46:26;;;;;;;;;;;;;;;;;;7368510;19;821;-68
2022/11/25 13:48:54;;;;;;;;;;;;;;;;;;7365921;19;1841;-65
2022/11/25 13:51:22;;;;;;;;;;;;;;;;;;7369006;19;803;-66
2022/11/25 13:53:51;;;;;;;;;;;;;;;;;;7368189;19;1365;-66
2022/11/25 13:56:19;;;;;;;;;;;;;;;;;;7366859;19;809;-66
2022/11/25 13:58:49;;;;;;;;;;;;;;;;;;7367495;19;784;-67
2022/11/25 14:01:17;;;;;;;;;;;;;;;;;;7369055;19;821;-67
2022/11/25 14:03:45;;;;;;;;;;;;;;;;;;7367648;19;1224;-66
2022/11/25 14:06:13;;;;;;;;;;;;;;;;;;7367784;19;846;-67
2022/11/25 14:08:42;;;;;;;;;;;;;;;;;;7366249;19;1852;-68
2022/11/25 14:11:10;;;;;;;;;;;;;;;;;;7368339;19;776;-67
2022/11/25 14:13:38;;;;;;;;;;;;;;;;;;7367368;19;1394;-68
2022/11/25 14:16:06;;;;;;;;;;;;;;;;;;7368592;19;817;-67
2022/11/25 14:18:34;;;;;;;;;;;;;;;;;;7367636;19;793;-67
2022/11/25 14:21:02;;;;;;;;;;;;;;;;;;7367981;19;862;-67
2022/11/25 14:23:31;;;;;;;;;;;;;;;;;;7366745;19;1348;-68
2022/11/25 14:25:59;;;;;;;;;;;;;;;;;;7367811;19;789;-67
2022/11/25 14:28:27;;;;;;;;;;;;;;;;;;7365841;19;1866;-66
2022/11/25 14:30:58;;;;;;;;;;;;;;;;;;7366087;19;842;-66
2022/11/25 14:33:26;;;;;;;;;;;;;;;;;;7366681;19;1319;-66
2022/11/25 14:35:54;;;;;;;;;;;;;;;;;;7367252;19;805;-66
2022/11/25 14:38:22;;;;;;;;;;;;;;;;;;7366592;19;822;-66
2022/11/25 14:40:51;;;;;;;;;;;;;;;;;;7367689;19;784;-66
2022/11/25 14:43:19;;;;;;;;;;;;;;;;;;7366871;19;1284;-65
2022/11/25 14:45:47;;;;;;;;;;;;;;;;;;7367511;19;891;-66
2022/11/25 14:48:15;;;;;;;;;;;;;;;;;;7367123;19;1829;-63
2022/11/25 14:50:43;;;;;;;;;;;;;;;;;;7368403;19;1849;-66
2022/11/25 14:53:13;;;;;;;;;;;;;;;;;;7369940;19;2034;-64
2022/11/25 14:55:41;;;;;;;;;;;;;;;;;;7367530;19;861;-65
2022/11/25 14:58:09;;;;;;;;;;;;;;;;;;7366843;19;791;-67
2022/11/25 15:00:37;;;;;;;;;;;;;;;;;;7368562;19;1913;-66
2022/11/25 15:03:06;;;;;;;;;;;;;;;;;;7364893;19;1326;-68
2022/11/25 15:05:34;;;;;;;;;;;;;;;;;;7367371;19;904;-65
2022/11/25 15:08:02;;;;;;;;;;;;;;;;;;7367453;19;1872;-65
2022/11/25 15:10:30;;;;;;;;;;;;;;;;;;7367155;19;839;-67
2022/11/25 15:12:58;;;;;;;;;;;;;;;;;;7366125;19;1329;-67
2022/11/25 15:15:26;;;;;;;;;;;;;;;;;;7367181;19;843;-65
2022/11/25 15:17:55;;;;;;;;;;;;;;;;;;7364709;19;811;-66
2022/11/25 15:20:23;;;;;;;;;;;;;;;;;;7365861;19;870;-64
2022/11/25 15:22:51;;;;;;;;;;;;;;;;;;7368694;19;1878;-64
2022/11/25 15:25:19;;;;;;;;;;;;;;;;;;7369454;19;1695;-65
2022/11/25 15:27:48;;;;;;;;;;;;;;;;;;7368797;19;1897;-65
2022/11/25 15:30:16;;;;;;;;;;;;;;;;;;7363341;19;1852;-63
2022/11/25 15:32:44;;;;;;;;;;;;;;;;;;7367624;19;1825;-64
2022/11/25 15:35:12;;;;;;;;;;;;;;;;;;7368782;19;1840;-65
2022/11/25 15:37:40;;;;;;;;;;;;;;;;;;7366255;19;856;-65
2022/11/25 15:40:08;;;;;;;;;;;;;;;;;;7364640;19;844;-64
2022/11/25 15:42:37;;;;;;;;;;;;;;;;;;7366313;19;1720;-65
2022/11/25 15:45:05;;;;;;;;;;;;;;;;;;7366877;19;1615;-66
2022/11/25 15:47:33;;;;;;;;;;;;;;;;;;7365865;19;854;-67
2022/11/25 15:50:01;;;;;;;;;;;;;;;;;;7362938;19;1931;-65
2022/11/25 15:52:29;;;;;;;;;;;;;;;;;;7369895;19;2293;-66
2022/11/25 15:54:57;;;;;;;;;;;;;;;;;;7363310;19;1314;-66
2022/11/25 15:57:25;;;;;;;;;;;;;;;;;;7364932;19;816;-66
2022/11/25 15:59:54;;;;;;;;;;;;;;;;;;7364012;19;794;-66
2022/11/25 16:02:22;;;;;;;;;;;;;;;;;;7365741;19;792;-68
2022/11/25 16:04:50;;;;;;;;;;;;;;;;;;7362395;19;1295;-66
2022/11/25 16:07:18;;;;;;;;;;;;;;;;;;7364992;19;823;-64
2022/11/25 16:09:46;;;;;;;;;;;;;;;;;;7360961;19;1860;-65
2022/11/25 16:12:15;;;;;;;;;;;;;;;;;;7364590;19;766;-67
2022/11/25 16:14:43;;;;;;;;;;;;;;;;;;7372592;19;1851;-66
2022/11/25 16:17:11;;;;;;;;;;;;;;;;;;7371258;19;824;-64
2022/11/25 16:19:39;;;;;;;;;;;;;;;;;;7370628;19;808;-65
2022/11/25 16:22:07;;;;;;;;;;;;;;;;;;7371612;19;846;-66
2022/11/25 16:24:35;;;;;;;;;;;;;;;;;;7371296;19;1782;-66
2022/11/25 16:27:03;;;;;;;;;;;;;;;;;;7372782;19;1857;-64
2022/11/25 16:29:32;;;;;;;;;;;;;;;;;;7369292;19;1893;-66
2022/11/25 16:32:00;;;;;;;;;;;;;;;;;;7370710;19;789;-66
2022/11/25 16:34:29;;;;;;;;;;;;;;;;;;7369919;19;1680;-68
2022/11/25 16:36:57;;;;;;;;;;;;;;;;;;7374149;19;2126;-65
2022/11/25 16:39:25;;;;;;;;;;;;;;;;;;7373564;19;1730;-64
2022/11/25 16:41:53;;;;;;;;;;;;;;;;;;7370690;19;818;-65
2022/11/25 16:44:21;;;;;;;;;;;;;;;;;;7369954;19;1828;-67
2022/11/25 16:46:50;;;;;;;;;;;;;;;;;;7371412;19;999;-67
2022/11/25 16:49:18;;;;;;;;;;;;;;;;;;7367655;19;1925;-64
2022/11/25 16:51:46;;;;;;;;;;;;;;;;;;7370950;19;824;-64
2022/11/25 16:54:15;;;;;;;;;;;;;;;;;;7368728;19;1263;-65
2022/11/25 16:56:43;;;;;;;;;;;;;;;;;;7369007;19;906;-65
2022/11/25 16:59:11;;;;;;;;;;;;;;;;;;7369244;19;828;-64
2022/11/25 17:01:39;;;;;;;;;;;;;;;;;;7369418;19;808;-64
2022/11/25 17:04:08;;;;;;;;;;;;;;;;;;7367843;19;1252;-61
2022/11/25 17:06:36;;;;;;;;;;;;;;;;;;7371589;19;1766;-64
2022/11/25 17:09:04;;;;;;;;;;;;;;;;;;7372276;19;1937;-65
2022/11/25 17:11:32;;;;;;;;;;;;;;;;;;7370112;19;878;-64
2022/11/25 17:14:00;;;;;;;;;;;;;;;;;;7368206;19;1398;-65
2022/11/25 17:16:28;;;;;;;;;;;;;;;;;;7369925;19;874;-65
2022/11/25 17:18:56;;;;;;;;;;;;;;;;;;7368684;19;820;-65
2022/11/25 17:21:26;;;;;;;;;;;;;;;;;;7369670;19;870;-65
2022/11/25 17:23:54;;;;;;;;;;;;;;;;;;7368893;19;1864;-63
2022/11/25 17:26:23;;;;;;;;;;;;;;;;;;7367717;19;1645;-66
2022/11/25 17:28:51;;;;;;;;;;;;;;;;;;7368491;19;1864;-65